Terminal Aerodrome Forecast
Issued by NWS

Home | Current Version | Previous Version | Text Only | Print | Product List | Glossary On
Versions: 1 2 3 4 5 6 7 8 9 10 11 12 13 14 15 16 17 18 19
000
FTUS44 KHGX 251120
TAFSGR
TAF
KSGR 251120Z 2512/2612 VRB03KT 6SM BR FEW025 BKN250
     FM251600 13005KT P6SM VCSH SCT025
     FM251800 13007KT P6SM VCTS BKN050CB BKN250
     FM252300 12008KT P6SM FEW050 BKN250
     FM261100 11004KT P6SM VCSH FEW015 SCT025 BKN150=

USA.gov is the U.S. government's official web portal to all federal, state and local government web resources and services.